sensor_id;sensor_type;location;lat;lon;timestamp;pressure;altitude;pressure_sealevel;temperature
79172;BMP280;68597;53.238;-1.418;2023-04-01T00:00:57;99181.94;;;10.01
79172;BMP280;68597;53.238;-1.418;2023-04-01T00:03:23;99187.50;;;10.01
79172;BMP280;68597;53.238;-1.418;2023-04-01T00:05:49;99190.88;;;9.99
79172;BMP280;68597;53.238;-1.418;2023-04-01T00:08:16;99194.22;;;9.98
79172;BMP280;68597;53.238;-1.418;2023-04-01T00:10:42;99196.81;;;9.95
79172;BMP280;68597;53.238;-1.418;2023-04-01T00:13:08;99206.47;;;9.94
79172;BMP280;68597;53.238;-1.418;2023-04-01T00:15:34;99200.91;;;9.94
79172;BMP280;68597;53.238;-1.418;2023-04-01T00:17:59;99203.53;;;9.92
79172;BMP280;68597;53.238;-1.418;2023-04-01T00:20:25;99210.19;;;9.89
79172;BMP280;68597;53.238;-1.418;2023-04-01T00:22:51;99212.97;;;9.89
79172;BMP280;68597;53.238;-1.418;2023-04-01T00:25:18;99213.56;;;9.88
79172;BMP280;68597;53.238;-1.418;2023-04-01T00:27:43;99210.75;;;9.88
79172;BMP280;68597;53.238;-1.418;2023-04-01T00:30:09;99212.09;;;9.87
79172;BMP280;68597;53.238;-1.418;2023-04-01T00:32:35;99211.69;;;9.83
79172;BMP280;68597;53.238;-1.418;2023-04-01T00:35:01;99220.78;;;9.83
79172;BMP280;68597;53.238;-1.418;2023-04-01T00:37:27;99220.63;;;9.81
79172;BMP280;68597;53.238;-1.418;2023-04-01T00:39:53;99220.63;;;9.81
79172;BMP280;68597;53.238;-1.418;2023-04-01T00:42:21;99226.19;;;9.81
79172;BMP280;68597;53.238;-1.418;2023-04-01T00:44:51;99232.13;;;9.78
79172;BMP280;68597;53.238;-1.418;2023-04-01T00:47:17;99224.31;;;9.76
79172;BMP280;68597;53.238;-1.418;2023-04-01T00:49:45;99241.03;;;9.76
79172;BMP280;68597;53.238;-1.418;2023-04-01T00:52:13;99242.53;;;9.77
79172;BMP280;68597;53.238;-1.418;2023-04-01T00:54:41;99243.66;;;9.74
79172;BMP280;68597;53.238;-1.418;2023-04-01T00:57:10;99242.16;;;9.73
79172;BMP280;68597;53.238;-1.418;2023-04-01T00:59:40;99240.66;;;9.72
79172;BMP280;68597;53.238;-1.418;2023-04-01T01:02:08;99239.19;;;9.71
79172;BMP280;68597;53.238;-1.418;2023-04-01T01:04:36;99241.41;;;9.73
79172;BMP280;68597;53.238;-1.418;2023-04-01T01:07:10;99246.25;;;9.72
79172;BMP280;68597;53.238;-1.418;2023-04-01T01:09:45;99250.53;;;9.73
79172;BMP280;68597;53.238;-1.418;2023-04-01T01:12:14;99237.72;;;9.70
79172;BMP280;68597;53.238;-1.418;2023-04-01T01:14:51;99244.78;;;9.71
79172;BMP280;68597;53.238;-1.418;2023-04-01T01:17:26;99247.38;;;9.69
79172;BMP280;68597;53.238;-1.418;2023-04-01T01:20:16;99255.53;;;9.67
79172;BMP280;68597;53.238;-1.418;2023-04-01T01:23:10;99258.13;;;9.65
79172;BMP280;68597;53.238;-1.418;2023-04-01T01:25:44;99258.13;;;9.65
79172;BMP280;68597;53.238;-1.418;2023-04-01T01:28:30;99253.69;;;9.62
79172;BMP280;68597;53.238;-1.418;2023-04-01T01:31:02;99257.38;;;9.65
79172;BMP280;68597;53.238;-1.418;2023-04-01T01:33:39;99266.31;;;9.63
79172;BMP280;68597;53.238;-1.418;2023-04-01T01:36:13;99263.16;;;9.59
79172;BMP280;68597;53.238;-1.418;2023-04-01T01:38:39;99274.50;;;9.61
79172;BMP280;68597;53.238;-1.418;2023-04-01T01:41:07;99278.56;;;9.60
79172;BMP280;68597;53.238;-1.418;2023-04-01T01:43:37;99284.34;;;9.62
79172;BMP280;68597;53.238;-1.418;2023-04-01T01:46:06;99281.56;;;9.62
79172;BMP280;68597;53.238;-1.418;2023-04-01T01:48:34;99280.81;;;9.62
79172;BMP280;68597;53.238;-1.418;2023-04-01T01:51:00;99291.22;;;9.61
79172;BMP280;68597;53.238;-1.418;2023-04-01T01:53:27;99288.44;;;9.61
79172;BMP280;68597;53.238;-1.418;2023-04-01T01:55:53;99282.66;;;9.59
79172;BMP280;68597;53.238;-1.418;2023-04-01T01:58:22;99287.47;;;9.59
79172;BMP280;68597;53.238;-1.418;2023-04-01T02:00:51;99298.63;;;9.59
79172;BMP280;68597;53.238;-1.418;2023-04-01T02:03:19;99296.41;;;9.57
79172;BMP280;68597;53.238;-1.418;2023-04-01T02:05:46;99303.06;;;9.54
79172;BMP280;68597;53.238;-1.418;2023-04-01T02:08:16;99290.41;;;9.38
79172;BMP280;68597;53.238;-1.418;2023-04-01T02:10:48;99309.03;;;9.51
79172;BMP280;68597;53.238;-1.418;2023-04-01T02:13:31;99312.34;;;9.49
79172;BMP280;68597;53.238;-1.418;2023-04-01T02:16:02;99312.72;;;9.45
79172;BMP280;68597;53.238;-1.418;2023-04-01T02:18:29;99322.75;;;9.48
79172;BMP280;68597;53.238;-1.418;2023-04-01T02:20:57;99322.75;;;9.48
79172;BMP280;68597;53.238;-1.418;2023-04-01T02:23:23;99315.69;;;9.40
79172;BMP280;68597;53.238;-1.418;2023-04-01T02:25:50;99309.34;;;9.32
79172;BMP280;68597;53.238;-1.418;2023-04-01T02:28:17;99329.25;;;9.43
79172;BMP280;68597;53.238;-1.418;2023-04-01T02:30:44;99340.56;;;9.45
79172;BMP280;68597;53.238;-1.418;2023-04-01T02:33:10;99342.63;;;9.45
79172;BMP280;68597;53.238;-1.418;2023-04-01T02:35:36;99343.19;;;9.43
79172;BMP280;68597;53.238;-1.418;2023-04-01T02:38:02;99342.22;;;9.41
79172;BMP280;68597;53.238;-1.418;2023-04-01T02:40:28;99352.06;;;9.42
79172;BMP280;68597;53.238;-1.418;2023-04-01T02:42:55;99349.13;;;9.40
79172;BMP280;68597;53.238;-1.418;2023-04-01T02:45:21;99356.72;;;9.39
79172;BMP280;68597;53.238;-1.418;2023-04-01T02:47:46;99353.94;;;9.39
79172;BMP280;68597;53.238;-1.418;2023-04-01T02:50:12;99353.94;;;9.39
79172;BMP280;68597;53.238;-1.418;2023-04-01T02:52:37;99352.44;;;9.38
79172;BMP280;68597;53.238;-1.418;2023-04-01T02:55:04;99354.47;;;9.38
79172;BMP280;68597;53.238;-1.418;2023-04-01T02:57:31;99353.91;;;9.32
79172;BMP280;68597;53.238;-1.418;2023-04-01T02:59:58;99359.84;;;9.36
79172;BMP280;68597;53.238;-1.418;2023-04-01T03:02:23;99361.34;;;9.37
79172;BMP280;68597;53.238;-1.418;2023-04-01T03:04:49;99363.94;;;9.35
79172;BMP280;68597;53.238;-1.418;2023-04-01T03:07:14;99370.81;;;9.34
79172;BMP280;68597;53.238;-1.418;2023-04-01T03:09:40;99373.41;;;9.32
79172;BMP280;68597;53.238;-1.418;2023-04-01T03:12:06;99374.69;;;9.31
79172;BMP280;68597;53.238;-1.418;2023-04-01T03:14:39;99380.03;;;9.29
79172;BMP280;68597;53.238;-1.418;2023-04-01T03:17:06;99382.84;;;9.29
79172;BMP280;68597;53.238;-1.418;2023-04-01T03:19:32;99381.34;;;9.28
79172;BMP280;68597;53.238;-1.418;2023-04-01T03:22:01;99383.97;;;9.26
79172;BMP280;68597;53.238;-1.418;2023-04-01T03:24:27;99392.50;;;9.28
79172;BMP280;68597;53.238;-1.418;2023-04-01T03:26:52;99396.56;;;9.27
79172;BMP280;68597;53.238;-1.418;2023-04-01T03:29:18;99387.28;;;9.24
79172;BMP280;68597;53.238;-1.418;2023-04-01T03:31:44;99380.97;;;9.24
79172;BMP280;68597;53.238;-1.418;2023-04-01T03:34:11;99377.03;;;9.19
79172;BMP280;68597;53.238;-1.418;2023-04-01T03:36:36;99365.28;;;9.06
79172;BMP280;68597;53.238;-1.418;2023-04-01T03:39:02;99399.84;;;9.18
79172;BMP280;68597;53.238;-1.418;2023-04-01T03:41:35;99398.38;;;9.17
79172;BMP280;68597;53.238;-1.418;2023-04-01T03:44:01;99396.91;;;9.16
79172;BMP280;68597;53.238;-1.418;2023-04-01T03:46:27;99391.88;;;9.14
79172;BMP280;68597;53.238;-1.418;2023-04-01T03:48:52;99387.59;;;9.13
79172;BMP280;68597;53.238;-1.418;2023-04-01T03:51:19;99394.25;;;9.10
79172;BMP280;68597;53.238;-1.418;2023-04-01T03:53:48;99393.13;;;9.06
79172;BMP280;68597;53.238;-1.418;2023-04-01T03:56:14;99398.69;;;9.06
79172;BMP280;68597;53.238;-1.418;2023-04-01T03:58:40;99395.72;;;9.04
79172;BMP280;68597;53.238;-1.418;2023-04-01T04:01:15;99402.56;;;9.03
79172;BMP280;68597;53.238;-1.418;2023-04-01T04:03:41;99403.84;;;9.02
79172;BMP280;68597;53.238;-1.418;2023-04-01T04:06:10;99410.56;;;8.99
79172;BMP280;68597;53.238;-1.418;2023-04-01T04:08:38;99416.13;;;8.99
79172;BMP280;68597;53.238;-1.418;2023-04-01T04:11:03;99381.78;;;8.75
79172;BMP280;68597;53.238;-1.418;2023-04-01T04:13:29;99406.34;;;8.84
79172;BMP280;68597;53.238;-1.418;2023-04-01T04:15:59;99428.09;;;8.93
79172;BMP280;68597;53.238;-1.418;2023-04-01T04:18:25;99429.41;;;8.92
79172;BMP280;68597;53.238;-1.418;2023-04-01T04:20:51;99429.41;;;8.92
79172;BMP280;68597;53.238;-1.418;2023-04-01T04:23:17;99433.50;;;8.91
79172;BMP280;68597;53.238;-1.418;2023-04-01T04:25:55;99444.63;;;8.91
79172;BMP280;68597;53.238;-1.418;2023-04-01T04:28:21;99433.09;;;8.87
79172;BMP280;68597;53.238;-1.418;2023-04-01T04:30:47;99441.63;;;8.89
79172;BMP280;68597;53.238;-1.418;2023-04-01T04:33:12;99440.16;;;8.88
79172;BMP280;68597;53.238;-1.418;2023-04-01T04:35:38;99444.22;;;8.87
79172;BMP280;68597;53.238;-1.418;2023-04-01T04:38:03;99444.22;;;8.87
79172;BMP280;68597;53.238;-1.418;2023-04-01T04:40:29;99446.81;;;8.85
79172;BMP280;68597;53.238;-1.418;2023-04-01T04:42:56;99450.88;;;8.84
79172;BMP280;68597;53.238;-1.418;2023-04-01T04:45:21;99450.88;;;8.84
79172;BMP280;68597;53.238;-1.418;2023-04-01T04:47:53;99453.66;;;8.84
79172;BMP280;68597;53.238;-1.418;2023-04-01T04:50:18;99456.03;;;8.80
79172;BMP280;68597;53.238;-1.418;2023-04-01T04:52:44;99449.72;;;8.80
79172;BMP280;68597;53.238;-1.418;2023-04-01T04:55:10;99457.13;;;8.77
79172;BMP280;68597;53.238;-1.418;2023-04-01T04:57:37;99459.91;;;8.77
79172;BMP280;68597;53.238;-1.418;2023-04-01T05:00:06;99457.13;;;8.77
79172;BMP280;68597;53.238;-1.418;2023-04-01T05:02:44;99469.56;;;8.76
79172;BMP280;68597;53.238;-1.418;2023-04-01T05:05:09;99469.34;;;8.74
79172;BMP280;68597;53.238;-1.418;2023-04-01T05:07:35;99466.34;;;8.72
79172;BMP280;68597;53.238;-1.418;2023-04-01T05:10:00;99467.63;;;8.71
79172;BMP280;68597;53.238;-1.418;2023-04-01T05:12:27;99472.97;;;8.69
79172;BMP280;68597;53.238;-1.418;2023-04-01T05:14:59;99482.69;;;8.68
79172;BMP280;68597;53.238;-1.418;2023-04-01T05:17:26;99490.06;;;8.66
79172;BMP280;68597;53.238;-1.418;2023-04-01T05:19:52;99500.44;;;8.65
79172;BMP280;68597;53.238;-1.418;2023-04-01T05:22:18;99506.00;;;8.65
79172;BMP280;68597;53.238;-1.418;2023-04-01T05:24:44;99507.09;;;8.62
79172;BMP280;68597;53.238;-1.418;2023-04-01T05:27:11;99507.09;;;8.62
79172;BMP280;68597;53.238;-1.418;2023-04-01T05:29:38;99505.59;;;8.61
79172;BMP280;68597;53.238;-1.418;2023-04-01T05:32:07;99511.16;;;8.61
79172;BMP280;68597;53.238;-1.418;2023-04-01T05:34:34;99506.66;;;8.58
79172;BMP280;68597;53.238;-1.418;2023-04-01T05:37:00;99521.00;;;8.62
79172;BMP280;68597;53.238;-1.418;2023-04-01T05:39:26;99524.88;;;8.59
79172;BMP280;68597;53.238;-1.418;2023-04-01T05:41:52;99525.97;;;8.56
79172;BMP280;68597;53.238;-1.418;2023-04-01T05:44:17;99546.22;;;8.64
79172;BMP280;68597;53.238;-1.418;2023-04-01T05:47:12;99520.66;;;8.45
79172;BMP280;68597;53.238;-1.418;2023-04-01T05:49:39;99551.59;;;8.62
79172;BMP280;68597;53.238;-1.418;2023-04-01T05:52:05;99538.44;;;8.63
79172;BMP280;68597;53.238;-1.418;2023-04-01T05:54:34;99553.81;;;8.64
79172;BMP280;68597;53.238;-1.418;2023-04-01T05:56:59;99549.91;;;8.59
79172;BMP280;68597;53.238;-1.418;2023-04-01T05:59:25;99558.97;;;8.60
79172;BMP280;68597;53.238;-1.418;2023-04-01T06:01:51;99556.94;;;8.60
79172;BMP280;68597;53.238;-1.418;2023-04-01T06:04:17;99566.19;;;8.55
79172;BMP280;68597;53.238;-1.418;2023-04-01T06:06:45;99571.41;;;8.59
79172;BMP280;68597;53.238;-1.418;2023-04-01T06:09:14;99577.94;;;8.61
79172;BMP280;68597;53.238;-1.418;2023-04-01T06:12:17;99582.22;;;8.62
79172;BMP280;68597;53.238;-1.418;2023-04-01T06:15:03;99587.97;;;8.64
79172;BMP280;68597;53.238;-1.418;2023-04-01T06:17:43;99587.97;;;8.64
79172;BMP280;68597;53.238;-1.418;2023-04-01T06:20:22;99590.97;;;8.66
79172;BMP280;68597;53.238;-1.418;2023-04-01T06:23:05;99596.53;;;8.66
79172;BMP280;68597;53.238;-1.418;2023-04-01T06:25:51;99602.50;;;8.70
79172;BMP280;68597;53.238;-1.418;2023-04-01T06:29:03;99608.06;;;8.70
79172;BMP280;68597;53.238;-1.418;2023-04-01T06:31:44;99602.50;;;8.70
79172;BMP280;68597;53.238;-1.418;2023-04-01T06:34:26;99605.50;;;8.72
79172;BMP280;68597;53.238;-1.418;2023-04-01T06:37:03;99603.78;;;8.69
79172;BMP280;68597;53.238;-1.418;2023-04-01T06:39:42;99605.13;;;8.68
79172;BMP280;68597;53.238;-1.418;2023-04-01T06:42:29;99616.63;;;8.72
79172;BMP280;68597;53.238;-1.418;2023-04-01T06:45:13;99622.09;;;8.78
79172;BMP280;68597;53.238;-1.418;2023-04-01T06:48:21;99623.03;;;8.80
79172;BMP280;68597;53.238;-1.418;2023-04-01T06:51:20;99627.75;;;8.85
79172;BMP280;68597;53.238;-1.418;2023-04-01T06:54:15;99629.44;;;8.88
79172;BMP280;68597;53.238;-1.418;2023-04-01T06:57:05;99633.91;;;8.91
79172;BMP280;68597;53.238;-1.418;2023-04-01T06:59:34;99638.94;;;8.93
79172;BMP280;68597;53.238;-1.418;2023-04-01T07:02:14;99639.91;;;8.95
79172;BMP280;68597;53.238;-1.418;2023-04-01T07:04:44;99639.91;;;8.95
79172;BMP280;68597;53.238;-1.418;2023-04-01T07:07:15;99647.38;;;9.01
79172;BMP280;68597;53.238;-1.418;2023-04-01T07:09:54;99632.84;;;8.94
79172;BMP280;68597;53.238;-1.418;2023-04-01T07:12:37;99657.88;;;9.08
79172;BMP280;68597;53.238;-1.418;2023-04-01T07:15:26;99654.19;;;9.13
79172;BMP280;68597;53.238;-1.418;2023-04-01T07:17:56;99667.56;;;9.14
79172;BMP280;68597;53.238;-1.418;2023-04-01T07:20:25;99664.25;;;9.16
79172;BMP280;68597;53.238;-1.418;2023-04-01T07:22:52;99672.78;;;9.18
79172;BMP280;68597;53.238;-1.418;2023-04-01T07:25:33;99681.59;;;9.22
79172;BMP280;68597;53.238;-1.418;2023-04-01T07:28:35;99683.28;;;9.25
79172;BMP280;68597;53.238;-1.418;2023-04-01T07:31:19;99686.06;;;9.25
79172;BMP280;68597;53.238;-1.418;2023-04-01T07:33:53;99680.28;;;9.23
79172;BMP280;68597;53.238;-1.418;2023-04-01T07:36:25;99679.22;;;9.26
79172;BMP280;68597;53.238;-1.418;2023-04-01T07:39:00;99695.25;;;9.33
79172;BMP280;68597;53.238;-1.418;2023-04-01T07:42:03;99693.06;;;9.39
79172;BMP280;68597;53.238;-1.418;2023-04-01T07:44:38;99702.22;;;9.47
79172;BMP280;68597;53.238;-1.418;2023-04-01T07:47:23;99698.75;;;9.54
79172;BMP280;68597;53.238;-1.418;2023-04-01T07:50:04;99691.41;;;9.64
79172;BMP280;68597;53.238;-1.418;2023-04-01T07:52:40;99698.56;;;9.73
79172;BMP280;68597;53.238;-1.418;2023-04-01T07:55:21;99709.44;;;9.84
79172;BMP280;68597;53.238;-1.418;2023-04-01T07:57:49;99715.81;;;9.92
79172;BMP280;68597;53.238;-1.418;2023-04-01T08:00:21;99714.19;;;9.96
79172;BMP280;68597;53.238;-1.418;2023-04-01T08:03:25;99716.34;;;9.90
79172;BMP280;68597;53.238;-1.418;2023-04-01T08:05:57;99727.72;;;9.92
79172;BMP280;68597;53.238;-1.418;2023-04-01T08:08:36;99732.19;;;9.95
79172;BMP280;68597;53.238;-1.418;2023-04-01T08:11:41;99740.78;;;9.98
79172;BMP280;68597;53.238;-1.418;2023-04-01T08:14:49;99725.53;;;9.98
79172;BMP280;68597;53.238;-1.418;2023-04-01T08:17:49;99747.19;;;10.06
79172;BMP280;68597;53.238;-1.418;2023-04-01T08:20:27;99746.97;;;10.04
79172;BMP280;68597;53.238;-1.418;2023-04-01T08:22:58;99745.25;;;10.01
79172;BMP280;68597;53.238;-1.418;2023-04-01T08:25:32;99761.97;;;10.01
79172;BMP280;68597;53.238;-1.418;2023-04-01T08:28:03;99769.41;;;9.98
79172;BMP280;68597;53.238;-1.418;2023-04-01T08:30:40;99767.50;;;9.93
79172;BMP280;68597;53.238;-1.418;2023-04-01T08:33:13;99771.94;;;9.88
79172;BMP280;68597;53.238;-1.418;2023-04-01T08:35:44;99768.50;;;9.82
79172;BMP280;68597;53.238;-1.418;2023-04-01T08:38:14;99774.31;;;9.84
79172;BMP280;68597;53.238;-1.418;2023-04-01T08:41:00;99773.78;;;9.86
79172;BMP280;68597;53.238;-1.418;2023-04-01T08:43:51;99776.03;;;9.87
79172;BMP280;68597;53.238;-1.418;2023-04-01T08:46:33;99785.25;;;10.03
79172;BMP280;68597;53.238;-1.418;2023-04-01T08:49:14;99786.72;;;10.25
79172;BMP280;68597;53.238;-1.418;2023-04-01T08:52:06;99796.88;;;10.43
79172;BMP280;68597;53.238;-1.418;2023-04-01T09:01:11;99795.53;;;10.65
79172;BMP280;68597;53.238;-1.418;2023-04-01T09:06:43;99802.34;;;10.84
79172;BMP280;68597;53.238;-1.418;2023-04-01T09:09:35;99809.47;;;10.93
79172;BMP280;68597;53.238;-1.418;2023-04-01T09:12:36;99815.09;;;11.01
79172;BMP280;68597;53.238;-1.418;2023-04-01T09:15:34;99823.31;;;11.14
79172;BMP280;68597;53.238;-1.418;2023-04-01T09:18:18;99822.78;;;11.15
79172;BMP280;68597;53.238;-1.418;2023-04-01T09:21:04;99810.84;;;11.15
79172;BMP280;68597;53.238;-1.418;2023-04-01T09:27:04;99826.69;;;11.20
79172;BMP280;68597;53.238;-1.418;2023-04-01T09:32:44;99827.03;;;11.09
79172;BMP280;68597;53.238;-1.418;2023-04-01T09:35:23;99833.91;;;11.00
79172;BMP280;68597;53.238;-1.418;2023-04-01T09:38:11;99826.56;;;10.89
79172;BMP280;68597;53.238;-1.418;2023-04-01T09:40:54;99835.38;;;10.93
79172;BMP280;68597;53.238;-1.418;2023-04-01T09:43:44;99844.28;;;10.92
79172;BMP280;68597;53.238;-1.418;2023-04-01T09:46:21;99841.53;;;10.99
79172;BMP280;68597;53.238;-1.418;2023-04-01T09:49:13;99847.97;;;11.23
79172;BMP280;68597;53.238;-1.418;2023-04-01T09:51:51;99854.44;;;11.69
79172;BMP280;68597;53.238;-1.418;2023-04-01T09:54:28;99840.69;;;12.01
79172;BMP280;68597;53.238;-1.418;2023-04-01T09:57:16;99858.97;;;12.17
79172;BMP280;68597;53.238;-1.418;2023-04-01T10:00:24;99866.44;;;12.15
79172;BMP280;68597;53.238;-1.418;2023-04-01T10:03:32;99869.41;;;12.01
79172;BMP280;68597;53.238;-1.418;2023-04-01T10:06:47;99873.88;;;11.89
79172;BMP280;68597;53.238;-1.418;2023-04-01T10:09:59;99883.19;;;11.77
79172;BMP280;68597;53.238;-1.418;2023-04-01T10:12:47;99883.72;;;11.68
79172;BMP280;68597;53.238;-1.418;2023-04-01T10:15:29;99892.09;;;11.60
79172;BMP280;68597;53.238;-1.418;2023-04-01T10:18:25;99882.72;;;11.50
79172;BMP280;68597;53.238;-1.418;2023-04-01T10:21:21;99896.16;;;11.51
79172;BMP280;68597;53.238;-1.418;2023-04-01T10:24:25;99906.22;;;11.47
79172;BMP280;68597;53.238;-1.418;2023-04-01T10:27:28;99916.59;;;11.39
79172;BMP280;68597;53.238;-1.418;2023-04-01T10:33:35;99916.03;;;11.33
79172;BMP280;68597;53.238;-1.418;2023-04-01T10:39:19;99912.53;;;11.40
79172;BMP280;68597;53.238;-1.418;2023-04-01T10:45:52;99918.56;;;11.59
79172;BMP280;68597;53.238;-1.418;2023-04-01T10:48:42;99927.34;;;11.63
79172;BMP280;68597;53.238;-1.418;2023-04-01T10:51:17;99930.13;;;11.63
79172;BMP280;68597;53.238;-1.418;2023-04-01T10:54:09;99935.34;;;11.67
79172;BMP280;68597;53.238;-1.418;2023-04-01T10:57:20;99908.47;;;11.56
79172;BMP280;68597;53.238;-1.418;2023-04-01T11:04:05;99939.00;;;11.97
79172;BMP280;68597;53.238;-1.418;2023-04-01T11:07:22;99948.94;;;12.14
79172;BMP280;68597;53.238;-1.418;2023-04-01T11:13:45;99933.44;;;12.28
79172;BMP280;68597;53.238;-1.418;2023-04-01T11:20:08;99964.44;;;12.45
79172;BMP280;68597;53.238;-1.418;2023-04-01T11:23:03;99977.31;;;12.40
79172;BMP280;68597;53.238;-1.418;2023-04-01T11:25:56;99982.16;;;12.32
79172;BMP280;68597;53.238;-1.418;2023-04-01T11:29:15;99991.47;;;12.20
79172;BMP280;68597;53.238;-1.418;2023-04-01T11:31:53;100001.50;;;12.08
79172;BMP280;68597;53.238;-1.418;2023-04-01T11:34:26;99996.81;;;12.02
79172;BMP280;68597;53.238;-1.418;2023-04-01T11:37:06;100005.59;;;11.99
79172;BMP280;68597;53.238;-1.418;2023-04-01T11:39:54;100006.13;;;11.97
79172;BMP280;68597;53.238;-1.418;2023-04-01T11:42:46;100005.41;;;11.97
79172;BMP280;68597;53.238;-1.418;2023-04-01T11:45:53;100011.72;;;11.90
79172;BMP280;68597;53.238;-1.418;2023-04-01T11:48:39;100021.41;;;11.89
79172;BMP280;68597;53.238;-1.418;2023-04-01T11:51:25;100028.25;;;11.80
79172;BMP280;68597;53.238;-1.418;2023-04-01T11:54:04;100020.97;;;11.70
79172;BMP280;68597;53.238;-1.418;2023-04-01T11:56:49;100031.94;;;11.68
79172;BMP280;68597;53.238;-1.418;2023-04-01T11:59:38;100026.72;;;11.64
79172;BMP280;68597;53.238;-1.418;2023-04-01T12:02:11;100031.63;;;11.71
79172;BMP280;68597;53.238;-1.418;2023-04-01T12:04:53;100048.06;;;11.82
79172;BMP280;68597;53.238;-1.418;2023-04-01T12:07:27;100044.16;;;11.85
79172;BMP280;68597;53.238;-1.418;2023-04-01T12:10:01;100042.09;;;11.86
79172;BMP280;68597;53.238;-1.418;2023-04-01T12:12:32;100058.16;;;11.85
79172;BMP280;68597;53.238;-1.418;2023-04-01T12:15:13;100055.53;;;11.87
79172;BMP280;68597;53.238;-1.418;2023-04-01T12:17:46;100060.94;;;11.85
79172;BMP280;68597;53.238;-1.418;2023-04-01T12:20:26;100069.38;;;11.93
79172;BMP280;68597;53.238;-1.418;2023-04-01T12:23:04;100075.00;;;12.00
79172;BMP280;68597;53.238;-1.418;2023-04-01T12:25:49;100049.59;;;11.91
79172;BMP280;68597;53.238;-1.418;2023-04-01T12:28:25;100076.19;;;12.13
79172;BMP280;68597;53.238;-1.418;2023-04-01T12:31:03;100076.94;;;12.21
79172;BMP280;68597;53.238;-1.418;2023-04-01T12:33:47;100086.50;;;12.25
79172;BMP280;68597;53.238;-1.418;2023-04-01T12:36:30;100079.94;;;12.23
79172;BMP280;68597;53.238;-1.418;2023-04-01T12:42:05;100105.25;;;12.10
79172;BMP280;68597;53.238;-1.418;2023-04-01T12:44:41;100097.38;;;12.00
79172;BMP280;68597;53.238;-1.418;2023-04-01T12:47:40;100104.59;;;11.88
79172;BMP280;68597;53.238;-1.418;2023-04-01T12:50:23;100099.50;;;11.79
79172;BMP280;68597;53.238;-1.418;2023-04-01T12:53:06;100095.31;;;11.65
79172;BMP280;68597;53.238;-1.418;2023-04-01T12:55:38;100111.38;;;11.72
79172;BMP280;68597;53.238;-1.418;2023-04-01T12:58:24;100118.09;;;11.69
79172;BMP280;68597;53.238;-1.418;2023-04-01T13:04:15;100122.19;;;11.68
79172;BMP280;68597;53.238;-1.418;2023-04-01T13:06:56;100126.34;;;11.75
79172;BMP280;68597;53.238;-1.418;2023-04-01T13:09:36;100126.19;;;11.80
79172;BMP280;68597;53.238;-1.418;2023-04-01T13:12:29;100133.69;;;11.85
79172;BMP280;68597;53.238;-1.418;2023-04-01T13:15:18;100142.25;;;11.87
79172;BMP280;68597;53.238;-1.418;2023-04-01T13:17:51;100140.97;;;11.88
79172;BMP280;68597;53.238;-1.418;2023-04-01T13:20:25;100140.56;;;11.84
79172;BMP280;68597;53.238;-1.418;2023-04-01T13:23:04;100139.63;;;11.82
79172;BMP280;68597;53.238;-1.418;2023-04-01T13:25:36;100150.59;;;11.80
79172;BMP280;68597;53.238;-1.418;2023-04-01T13:28:12;100146.44;;;11.73
79172;BMP280;68597;53.238;-1.418;2023-04-01T13:30:48;100155.06;;;11.75
79172;BMP280;68597;53.238;-1.418;2023-04-01T13:33:20;100154.84;;;11.73
79172;BMP280;68597;53.238;-1.418;2023-04-01T13:35:53;100127.28;;;11.49
79172;BMP280;68597;53.238;-1.418;2023-04-01T13:38:38;100170.34;;;11.74
79172;BMP280;68597;53.238;-1.418;2023-04-01T13:41:13;100168.91;;;11.81
79172;BMP280;68597;53.238;-1.418;2023-04-01T13:43:47;100171.94;;;11.90
79172;BMP280;68597;53.238;-1.418;2023-04-01T13:46:39;100165.66;;;11.97
79172;BMP280;68597;53.238;-1.418;2023-04-01T13:52:05;100164.94;;;12.04
79172;BMP280;68597;53.238;-1.418;2023-04-01T13:57:34;100194.91;;;12.25
79172;BMP280;68597;53.238;-1.418;2023-04-01T14:00:11;100188.72;;;12.19
79172;BMP280;68597;53.238;-1.418;2023-04-01T14:02:54;100186.63;;;12.12
79172;BMP280;68597;53.238;-1.418;2023-04-01T14:05:35;100202.72;;;12.19
79172;BMP280;68597;53.238;-1.418;2023-04-01T14:08:08;100200.69;;;12.19
79172;BMP280;68597;53.238;-1.418;2023-04-01T14:10:36;100202.91;;;12.21
79172;BMP280;68597;53.238;-1.418;2023-04-01T14:13:08;100205.16;;;12.22
79172;BMP280;68597;53.238;-1.418;2023-04-01T14:15:46;100195.63;;;12.18
79172;BMP280;68597;53.238;-1.418;2023-04-01T14:18:36;100209.91;;;12.35
79172;BMP280;68597;53.238;-1.418;2023-04-01T14:21:13;100216.09;;;12.41
79172;BMP280;68597;53.238;-1.418;2023-04-01T14:23:55;100218.91;;;12.41
79172;BMP280;68597;53.238;-1.418;2023-04-01T14:29:38;100235.09;;;12.35
79172;BMP280;68597;53.238;-1.418;2023-04-01T14:32:11;100237.69;;;12.33
79172;BMP280;68597;53.238;-1.418;2023-04-01T14:34:56;100246.25;;;12.27
79172;BMP280;68597;53.238;-1.418;2023-04-01T14:37:55;100244.00;;;12.26
79172;BMP280;68597;53.238;-1.418;2023-04-01T14:40:22;100244.56;;;12.24
79172;BMP280;68597;53.238;-1.418;2023-04-01T14:43:20;100251.81;;;12.20
79172;BMP280;68597;53.238;-1.418;2023-04-01T14:46:06;100237.41;;;12.16
79172;BMP280;68597;53.238;-1.418;2023-04-01T14:48:36;100263.94;;;12.22
79172;BMP280;68597;53.238;-1.418;2023-04-01T14:51:10;100266.19;;;12.24
79172;BMP280;68597;53.238;-1.418;2023-04-01T14:53:43;100273.50;;;12.27
79172;BMP280;68597;53.238;-1.418;2023-04-01T14:56:09;100276.72;;;12.31
79172;BMP280;68597;53.238;-1.418;2023-04-01T14:58:44;100273.69;;;12.29
79172;BMP280;68597;53.238;-1.418;2023-04-01T15:01:25;100274.84;;;12.33
79172;BMP280;68597;53.238;-1.418;2023-04-01T15:04:07;100287.19;;;12.38
79172;BMP280;68597;53.238;-1.418;2023-04-01T15:07:00;100290.56;;;12.36
79172;BMP280;68597;53.238;-1.418;2023-04-01T15:09:34;100300.81;;;12.34
79172;BMP280;68597;53.238;-1.418;2023-04-01T15:12:12;100299.88;;;12.31
79172;BMP280;68597;53.238;-1.418;2023-04-01T15:15:11;100309.91;;;12.27
79172;BMP280;68597;53.238;-1.418;2023-04-01T15:17:55;100303.50;;;12.19
79172;BMP280;68597;53.238;-1.418;2023-04-01T15:20:40;100318.78;;;12.18
79172;BMP280;68597;53.238;-1.418;2023-04-01T15:23:19;100328.28;;;12.15
79172;BMP280;68597;53.238;-1.418;2023-04-01T15:26:01;100328.09;;;12.13
79172;BMP280;68597;53.238;-1.418;2023-04-01T15:28:37;100337.78;;;12.12
79172;BMP280;68597;53.238;-1.418;2023-04-01T15:31:09;100347.25;;;12.09
79172;BMP280;68597;53.238;-1.418;2023-04-01T15:33:50;100347.09;;;12.07
79172;BMP280;68597;53.238;-1.418;2023-04-01T15:36:27;100353.75;;;12.03
79172;BMP280;68597;53.238;-1.418;2023-04-01T15:39:02;100347.97;;;12.01
79172;BMP280;68597;53.238;-1.418;2023-04-01T15:41:36;100355.59;;;12.01
79172;BMP280;68597;53.238;-1.418;2023-04-01T15:44:37;100355.53;;;11.93
79172;BMP280;68597;53.238;-1.418;2023-04-01T15:47:26;100366.94;;;11.95